Darstellungsparameter: Aktuell verwendete Einstellungen:
Skalierung der Graphiken ... ?
xyx+y,   Skalierungsfaktor:      Skalierung: Modus: x, Faktor: 1
Darstellungszeitraum ... ?
Vom - - bis: - -   Zeitraum: 17.11.2008 - 16.05.2009
Min/Max/Avg-Anzeige ... ?
Zeige MMA aktuell
Zeige MMA Monat
Zeige MMA alles
Zeige --A aktuell
Zeige --A Monat
Zeige --A alles
Keine MMA-Anzeige
MMA:
Average (ber die Originaldaten)
MMA-Basis: 17.11.2008 - 16.05.2009
Quicknavigation für Darstellung... ?
Tage:      1T, 2T, 3T, 5T -1T -2T -3T -5T +1T +2T +3T +5T
Wochen: 1W, 2W, 3W -1W -2W -3W +1W +2W +3W
Monate: 1M, 3M, 6M -1M -3M -6M +1M +3M +6M
Jahre:    1J, 3J, 5J, 10J -1J -3J -5J -10J +1J +3J +5J +10J
Nutze für die Darstellung ... ?
Originaldaten oder ...
Mittelwerte Minima Maxima auf...
Stundenbasis Tagesbasis Wochenbasis
Monatsbasis Jahresbasis      Datenbasis: Mittelwerte auf Tagesbasis
Darstellen als:
Statistik (Auto) Statistik J:M      Darstellung:
Zur Graphik,    zurück zur Übersicht aller Sensoren.
 
Tabellarische Datenbersicht: ?
 
Sensor: Nr:Datum:Temp:Abs-Feuchte:Windchill:Wind:
Aussen-T/F 1 17-11-2008 00:00:00 4.03167 C 5.46 g/m*3 4.03 C 0 km/h
2 18-11-2008 00:00:00 4.76417 C 5.59 g/m*3 4.76 C 0 km/h
3 19-11-2008 00:00:00 7.7775 C 6.09 g/m*3 7.78 C 0 km/h
4 20-11-2008 00:00:00 9.54 C 6.58 g/m*3 9.54 C 0 km/h
5 21-11-2008 00:00:00 5.21083 C 5.22 g/m*3 5.21 C 0 km/h
6 22-11-2008 00:00:00 1.08571 C 3.81 g/m*3 1.09 C 0 km/h
7 23-11-2008 00:00:00 0.81333 C 4.11 g/m*3 0.81 C 0 km/h
8 24-11-2008 00:00:00 1.92667 C 4.67 g/m*3 1.93 C 0 km/h
9 25-11-2008 00:00:00 0.79667 C 4.51 g/m*3 0.8 C 0 km/h
10 26-11-2008 00:00:00 2.38333 C 4.91 g/m*3 2.38 C 0 km/h
11 27-11-2008 00:00:00 3.435 C 4.58 g/m*3 3.44 C 0 km/h
12 28-11-2008 00:00:00 0.47667 C 3.78 g/m*3 0.48 C 0 km/h
13 29-11-2008 00:00:00 0.98 C 4.13 g/m*3 0.98 C 0 km/h
14 30-11-2008 00:00:00 1.12 C 4.72 g/m*3 1.12 C 0 km/h
15 01-12-2008 00:00:00 0.30417 C 4.54 g/m*3 0.3 C 0 km/h
16 02-12-2008 00:00:00 2.80917 C 4.97 g/m*3 2.81 C 0 km/h
17 03-12-2008 00:00:00 1.785 C 4.91 g/m*3 1.79 C 0 km/h
18 04-12-2008 00:00:00 1.92353 C 5.05 g/m*3 1.92 C 0 km/h
19 05-12-2008 00:00:00 5.36 C 6.01 g/m*3 5.36 C 0 km/h
20 06-12-2008 00:00:00 4.73 C 5.89 g/m*3 4.73 C 0 km/h
21 07-12-2008 00:00:00 3.85333 C 5.78 g/m*3 3.85 C 0 km/h
22 08-12-2008 00:00:00 0.26917 C 4.58 g/m*3 0.27 C 0 km/h
23 09-12-2008 00:00:00 0.56667 C 4.36 g/m*3 0.57 C 0 km/h
24 10-12-2008 00:00:00 1.97667 C 5.17 g/m*3 1.98 C 0 km/h
25 11-12-2008 00:00:00 1.4775 C 4.54 g/m*3 1.48 C 0 km/h
Sensor: Nr:Datum:Temp:Abs-Feuchte:Windchill:Wind:
Aussen-T/F 26 12-12-2008 00:00:00 -0.23583 C 3.8 g/m*3 -0.24 C 0 km/h
27 13-12-2008 00:00:00 -0.26167 C 3.56 g/m*3 -0.26 C 0 km/h
28 14-12-2008 00:00:00 0.28083 C 4.24 g/m*3 0.28 C 0 km/h
29 15-12-2008 00:00:00 -0.1075 C 4.53 g/m*3 -0.11 C 0 km/h
30 16-12-2008 00:00:00 0.42521 C 4.59 g/m*3 0.43 C 0 km/h
31 17-12-2008 00:00:00 -0.0375 C 4.31 g/m*3 -0.04 C 0 km/h
32 18-12-2008 00:00:00 2.15083 C 5.01 g/m*3 2.15 C 0 km/h
33 19-12-2008 00:00:00 4.22333 C 5.23 g/m*3 4.22 C 0 km/h
34 20-12-2008 00:00:00 6.45667 C 6.48 g/m*3 6.46 C 0 km/h
35 21-12-2008 00:00:00 7.94917 C 6.81 g/m*3 7.95 C 0 km/h
36 22-12-2008 00:00:00 8.47167 C 6.7 g/m*3 8.47 C 0 km/h
37 23-12-2008 00:00:00 6.21417 C 5.86 g/m*3 6.21 C 0 km/h
38 24-12-2008 00:00:00 4.55833 C 5.62 g/m*3 4.56 C 0 km/h
39 25-12-2008 00:00:00 4.40252 C 4.56 g/m*3 4.4 C 0 km/h
40 26-12-2008 00:00:00 -1.1875 C 2.6 g/m*3 -1.19 C 0 km/h
41 27-12-2008 00:00:00 -1.85667 C 2.56 g/m*3 -1.86 C 0 km/h
42 28-12-2008 00:00:00 -3.02917 C 2.53 g/m*3 -3.03 C 0 km/h
43 29-12-2008 00:00:00 -5.49833 C 2.6 g/m*3 -5.5 C 0 km/h
44 30-12-2008 00:00:00 -6.21833 C 2.53 g/m*3 -6.22 C 0 km/h
45 31-12-2008 00:00:00 -4.32583 C 2.92 g/m*3 -4.33 C 0 km/h
46 01-01-2009 00:00:00 -3.46417 C 2.96 g/m*3 -3.46 C 0 km/h
47 02-01-2009 00:00:00 -2.03917 C 3.39 g/m*3 -2.04 C 0 km/h
48 03-01-2009 00:00:00 -3.57 C 2.96 g/m*3 -3.57 C 0 km/h
49 04-01-2009 00:00:00 -1.06833 C 2.96 g/m*3 -1.07 C 0 km/h
50 05-01-2009 00:00:00 -1.23866 C 3.28 g/m*3 -1.24 C 0 km/h
Sensor: Nr:Datum:Temp:Abs-Feuchte:Windchill:Wind:
Aussen-T/F 51 06-01-2009 00:00:00 -6.97 C 1.26 g/m*3 -6.97 C 0 km/h
52 07-01-2009 00:00:00 -10.99167 C 1.39 g/m*3 -10.99 C 0 km/h
53 08-01-2009 00:00:00 -6.02083 C 2.27 g/m*3 -6.02 C 0 km/h
54 09-01-2009 00:00:00 -11.165 C 1.54 g/m*3 -11.17 C 0 km/h
55 10-01-2009 00:00:00 -11.3175 C 1.53 g/m*3 -11.32 C 0 km/h
56 11-01-2009 00:00:00 -8.9975 C 1.92 g/m*3 -9 C 0 km/h
57 12-01-2009 00:00:00 -7.30417 C 2.15 g/m*3 -7.3 C 0 km/h
58 13-01-2009 00:00:00 -0.17833 C 3.29 g/m*3 -0.18 C 0 km/h
59 14-01-2009 00:00:00 -0.15917 C 4.05 g/m*3 -0.16 C 0 km/h
60 15-01-2009 00:00:00 0.77417 C 4.28 g/m*3 0.77 C 0 km/h
61 16-01-2009 00:00:00 0.69833 C 3.9 g/m*3 0.7 C 0 km/h
62 17-01-2009 00:00:00 2.97833 C 4.9 g/m*3 2.98 C 0 km/h
63 18-01-2009 00:00:00 4.50924 C 5.1 g/m*3 4.51 C 0 km/h
64 19-01-2009 00:00:00 5.4575 C 5.21 g/m*3 5.46 C 0 km/h
65 20-01-2009 00:00:00 3.6475 C 4.19 g/m*3 3.65 C 0 km/h
66 21-01-2009 00:00:00 0.32 C 4.11 g/m*3 0.32 C 0 km/h
67 22-01-2009 00:00:00 2.825 C 4.02 g/m*3 2.83 C 0 km/h
68 23-01-2009 00:00:00 4.345 C 5.29 g/m*3 4.35 C 0 km/h
69 24-01-2009 00:00:00 3.13 C 4.29 g/m*3 3.13 C 0 km/h
70 25-01-2009 00:00:00 0.15167 C 4.08 g/m*3 0.15 C 0 km/h
71 26-01-2009 00:00:00 -2.16917 C 3.69 g/m*3 -2.17 C 0 km/h
72 27-01-2009 00:00:00 -0.93167 C 3.93 g/m*3 -0.93 C 0 km/h
73 28-01-2009 00:00:00 0.50833 C 4.02 g/m*3 0.51 C 0 km/h
74 29-01-2009 00:00:00 1.15667 C 3.12 g/m*3 1.16 C 0 km/h
75 30-01-2009 00:00:00 -1.50917 C 3.06 g/m*3 -1.51 C 0 km/h
Sensor: Nr:Datum:Temp:Abs-Feuchte:Windchill:Wind:
Aussen-T/F 76 31-01-2009 00:00:00 0.06303 C 2.59 g/m*3 0.06 C 0 km/h
77 01-02-2009 00:00:00 -0.11167 C 2.24 g/m*3 -0.11 C 0 km/h
78 02-02-2009 00:00:00 1.085 C 2.84 g/m*3 1.09 C 0 km/h
79 03-02-2009 00:00:00 0.63833 C 3.81 g/m*3 0.64 C 0 km/h
80 04-02-2009 00:00:00 3.0025 C 4.61 g/m*3 3 C 0 km/h
81 05-02-2009 00:00:00 3.2325 C 4.69 g/m*3 3.23 C 0 km/h
82 06-02-2009 00:00:00 4.3 C 5.03 g/m*3 4.3 C 0 km/h
83 07-02-2009 00:00:00 4.03417 C 5.27 g/m*3 4.03 C 0 km/h
84 08-02-2009 00:00:00 2.6525 C 3.3 g/m*3 2.65 C 0 km/h
85 09-02-2009 00:00:00 2.3775 C 3.79 g/m*3 2.38 C 0 km/h
86 10-02-2009 00:00:00 4.155 C 5.17 g/m*3 4.16 C 0 km/h
87 11-02-2009 00:00:00 2.90333 C 3.62 g/m*3 2.9 C 0 km/h
88 12-02-2009 00:00:00 0.68908 C 3.9 g/m*3 0.69 C 0 km/h
89 13-02-2009 00:00:00 0.51333 C 4.05 g/m*3 0.51 C 0 km/h
90 14-02-2009 00:00:00 0.46083 C 3.41 g/m*3 0.46 C 0 km/h
91 15-02-2009 00:00:00 -1.63583 C 2.82 g/m*3 -1.64 C 0 km/h
92 16-02-2009 00:00:00 1.96417 C 4.68 g/m*3 1.96 C 0 km/h
93 17-02-2009 00:00:00 3.77167 C 5.13 g/m*3 3.77 C 0 km/h
94 18-02-2009 00:00:00 -1.62667 C 2.39 g/m*3 -1.63 C 0 km/h
95 19-02-2009 00:00:00 1.01417 C 2.7 g/m*3 1.01 C 0 km/h
96 20-02-2009 00:00:00 3.41917 C 5.01 g/m*3 3.42 C 0 km/h
97 21-02-2009 00:00:00 4.72083 C 4.87 g/m*3 4.72 C 0 km/h
98 22-02-2009 00:00:00 5.24667 C 5.76 g/m*3 5.25 C 0 km/h
99 23-02-2009 00:00:00 5.50083 C 4.72 g/m*3 5.5 C 0 km/h
100 24-02-2009 00:00:00 4.8325 C 4.1 g/m*3 4.83 C 0 km/h
Sensor: Nr:Datum:Temp:Abs-Feuchte:Windchill:Wind:
Aussen-T/F 101 25-02-2009 00:00:00 3.34286 C 4 g/m*3 3.34 C 0 km/h
102 26-02-2009 00:00:00 6.7377 C 4.3 g/m*3 6.74 C 0 km/h
103 27-02-2009 00:00:00 7.10417 C 5.5 g/m*3 7.1 C 0 km/h
104 28-02-2009 00:00:00 10.0375 C 5.89 g/m*3 10.04 C 0 km/h
105 01-03-2009 00:00:00 9.95 C 5.76 g/m*3 9.95 C 0 km/h
106 02-03-2009 00:00:00 7.98 C 5.85 g/m*3 7.98 C 0 km/h
107 03-03-2009 00:00:00 5.05583 C 3.94 g/m*3 5.06 C 0 km/h
108 04-03-2009 00:00:00 7.27917 C 3.96 g/m*3 7.28 C 0 km/h
109 05-03-2009 00:00:00 4.42917 C 5.35 g/m*3 4.43 C 0 km/h
110 06-03-2009 00:00:00 3.82417 C 5.35 g/m*3 3.82 C 0 km/h
111 07-03-2009 00:00:00 5.72167 C 3.85 g/m*3 5.72 C 0 km/h
112 08-03-2009 00:00:00 7.50833 C 5.49 g/m*3 7.51 C 0 km/h
113 09-03-2009 00:00:00 5.1521 C 4.17 g/m*3 5.15 C 0 km/h
114 10-03-2009 00:00:00 5.4275 C 4.82 g/m*3 5.43 C 0 km/h
115 11-03-2009 00:00:00 5.60417 C 4.35 g/m*3 5.6 C 0 km/h
116 12-03-2009 00:00:00 5.67083 C 5.13 g/m*3 5.67 C 0 km/h
117 13-03-2009 00:00:00 8.68167 C 5.63 g/m*3 8.68 C 0 km/h
118 14-03-2009 00:00:00 8.925 C 5.68 g/m*3 8.93 C 0 km/h
119 15-03-2009 00:00:00 9.41667 C 4.91 g/m*3 9.42 C 0 km/h
120 16-03-2009 00:00:00 8.23417 C 5.83 g/m*3 8.23 C 0 km/h
121 17-03-2009 00:00:00 7.73833 C 5.15 g/m*3 7.74 C 0 km/h
122 18-03-2009 00:00:00 5.82417 C 3.93 g/m*3 5.82 C 0 km/h
123 19-03-2009 00:00:00 5.41917 C 3.04 g/m*3 5.42 C 0 km/h
124 20-03-2009 00:00:00 4.59917 C 2.69 g/m*3 4.6 C 0 km/h
125 21-03-2009 00:00:00 5.07 C 2.81 g/m*3 5.07 C 0 km/h
Sensor: Nr:Datum:Temp:Abs-Feuchte:Windchill:Wind:
Aussen-T/F 126 22-03-2009 00:00:00 5.16639 C 3.79 g/m*3 5.17 C 0 km/h
127 23-03-2009 00:00:00 7.82917 C 4.91 g/m*3 7.83 C 0 km/h
128 24-03-2009 00:00:00 3.67333 C 4.24 g/m*3 3.67 C 0 km/h
129 25-03-2009 00:00:00 3.18417 C 4.69 g/m*3 3.18 C 0 km/h
130 26-03-2009 00:00:00 6.40083 C 5.48 g/m*3 6.4 C 0 km/h
131 27-03-2009 00:00:00 7.28333 C 5.31 g/m*3 7.28 C 0 km/h
132 28-03-2009 00:00:00 6.97583 C 5.39 g/m*3 6.98 C 0 km/h
133 29-03-2009 00:00:00 6.18435 C 4.96 g/m*3 6.18 C 0 km/h
134 30-03-2009 00:00:00 6.41833 C 4.78 g/m*3 6.42 C 0 km/h
135 31-03-2009 00:00:00 8.3325 C 4.49 g/m*3 8.33 C 0 km/h
136 01-04-2009 00:00:00 10.89833 C 4.57 g/m*3 10.9 C 0 km/h
137 02-04-2009 00:00:00 15.335 C 5.18 g/m*3 15.34 C 0 km/h
138 03-04-2009 00:00:00 15.87143 C 6.71 g/m*3 15.87 C 0 km/h
139 04-04-2009 00:00:00 16.68333 C 7.32 g/m*3 16.68 C 0 km/h
140 05-04-2009 00:00:00 14.9675 C 6.93 g/m*3 14.97 C 0 km/h
141 06-04-2009 00:00:00 14.72833 C 6.98 g/m*3 14.73 C 0 km/h
142 07-04-2009 00:00:00 14.57333 C 7.41 g/m*3 14.57 C 0 km/h
143 08-04-2009 00:00:00 14.20167 C 6.07 g/m*3 14.2 C 0 km/h
144 09-04-2009 00:00:00 16.28067 C 7.49 g/m*3 16.28 C 0 km/h
145 10-04-2009 00:00:00 18.55372 C 7.45 g/m*3 18.55 C 0 km/h
146 11-04-2009 00:00:00 17.3525 C 7.29 g/m*3 17.35 C 0 km/h
147 12-04-2009 00:00:00 16.79 C 8.39 g/m*3 16.79 C 0 km/h
148 13-04-2009 00:00:00 15.65167 C 9.22 g/m*3 15.65 C 0 km/h
149 14-04-2009 00:00:00 16.16167 C 8.27 g/m*3 16.16 C 0 km/h
150 15-04-2009 00:00:00 16.94202 C 7.01 g/m*3 16.94 C 0 km/h
Sensor: Nr:Datum:Temp:Abs-Feuchte:Windchill:Wind:
Aussen-T/F 151 16-04-2009 00:00:00 14.94583 C 6.79 g/m*3 14.95 C 0 km/h
152 17-04-2009 00:00:00 10.0825 C 8.69 g/m*3 10.08 C 0 km/h
153 18-04-2009 00:00:00 9.84 C 8.53 g/m*3 9.84 C 0 km/h
154 19-04-2009 00:00:00 14.95667 C 7.61 g/m*3 14.96 C 0 km/h
155 20-04-2009 00:00:00 15.16917 C 7.23 g/m*3 15.17 C 0 km/h
156 21-04-2009 00:00:00 15.74583 C 6.35 g/m*3 15.75 C 0 km/h
157 22-04-2009 00:00:00 13.68833 C 5.48 g/m*3 13.69 C 0 km/h
158 23-04-2009 00:00:00 11.645 C 5.16 g/m*3 11.65 C 0 km/h
159 24-04-2009 00:00:00 14.11333 C 5.96 g/m*3 14.11 C 0 km/h
160 25-04-2009 00:00:00 14.64833 C 7.16 g/m*3 14.65 C 0 km/h
161 26-04-2009 00:00:00 18.35 C 8.19 g/m*3 18.35 C 0 km/h
162 27-04-2009 00:00:00 14.89496 C 7.27 g/m*3 14.89 C 0 km/h
163 28-04-2009 00:00:00 11.07833 C 8.01 g/m*3 11.08 C 0 km/h
164 29-04-2009 00:00:00 11.9025 C 7.14 g/m*3 11.9 C 0 km/h
165 30-04-2009 00:00:00 12.85833 C 7.53 g/m*3 12.86 C 0 km/h
166 01-05-2009 00:00:00 16.25583 C 8.09 g/m*3 16.26 C 0 km/h
167 02-05-2009 00:00:00 17.60167 C 7.7 g/m*3 17.6 C 0 km/h
168 03-05-2009 00:00:00 14.58333 C 7.12 g/m*3 14.58 C 0 km/h
169 04-05-2009 00:00:00 11.88333 C 4.53 g/m*3 11.88 C 0 km/h
170 05-05-2009 00:00:00 10.50917 C 6.68 g/m*3 10.51 C 0 km/h
171 06-05-2009 00:00:00 13.85625 C 7.25 g/m*3 13.86 C 0 km/h
172 07-05-2009 00:00:00 16.47708 C 7.43 g/m*3 16.48 C 0 km/h
173 08-05-2009 00:00:00 16.58021 C 8.46 g/m*3 16.58 C 0 km/h
174 09-05-2009 00:00:00 14.3875 C 8.01 g/m*3 14.39 C 0 km/h
175 10-05-2009 00:00:00 17.72083 C 9.72 g/m*3 17.72 C 0 km/h
Sensor: Nr:Datum:Temp:Abs-Feuchte:Windchill:Wind:
Aussen-T/F 176 11-05-2009 00:00:00 13.57188 C 11.06 g/m*3 13.57 C 0 km/h
177 12-05-2009 00:00:00 11.83333 C 9.17 g/m*3 11.83 C 0 km/h
178 13-05-2009 00:00:00 15.51771 C 8.96 g/m*3 15.52 C 0 km/h
179 14-05-2009 00:00:00 16.00104 C 9.44 g/m*3 16 C 0 km/h
180 15-05-2009 00:00:00 15.12255 C 10.34 g/m*3 15.12 C 0 km/h
181 16-05-2009 00:00:00 13.80333 C 7.38 g/m*3 13.8 C 0 km/h

Maximal/Minimal-Werte vom 17.11.2008 - 16.05.2009

Sensor Min Max Avg
Temp
(Aussen-T/F)
-16.1 °C
07-01-2009  08:49:12
29.9 °C
10-04-2009  17:42:52
5.43 °C
Abs-Feuchte
(Aussen-T/F)
1.26 g/m*3
06-01-2009  00:00:00
11.06 g/m*3
11-05-2009  00:00:00
5.08 g/m*3
Windchill
(Aussen-T/F)
-11.32 C
10-01-2009  00:00:00
18.55 C
10-04-2009  00:00:00
5.5 C

Die Daten stammen von einer Davis Vantage Pro 2 Wetter-Station und werden unter Linux mit der Software wview2wettercgi und aufbereitet. Alle Angaben erfolgen ohne Gewähr für ihre Vollständigkeit oder Richtigkeit.
Kontakt: Rainer Krienke krienke@uni-koblenz.de . Meine Webseiten an der Uni Koblenz oder privat.
Version: $Revision: 0.78 $